UAL954 KSFO-KLAX
Flight info
| Callsign | UAL954 |
|---|---|
| Flight time | 0h 54m |
| Altitude | 37000 |
| Route | WESLA5 SUSEY EBAYE BURGL IRNMN2 |
| Aircraft | B77W/H-SDE1E2E3FGHIJ2J3J4J5M1RWXY/LB1D1 |
Departure
| Time | 2026-04-25 07:20 |
|---|---|
| Airport | San Francisco International Airport (KSFO) |
Arrival
| Time | 2026-04-25 08:14 |
|---|---|
| Airport | Los Angeles International Airport (KLAX) |
| Time | Latitude | Longitude | Altitude | Speed | Heading |
|---|---|---|---|---|---|
| 2026-04-25 06:59 | 37.61249 | -122.38592 | 27 ft | 0 kts | 118° |
| 2026-04-25 07:08 | 37.61250 | -122.38597 | 27 ft | 2 kts | 118° |
| 2026-04-25 07:08 | 37.61259 | -122.38614 | 27 ft | 2 kts | 125° |
| 2026-04-25 07:08 | 37.61269 | -122.38631 | 27 ft | 2 kts | 136° |
| 2026-04-25 07:08 | 37.61282 | -122.38644 | 26 ft | 2 kts | 156° |
| 2026-04-25 07:09 | 37.61299 | -122.38648 | 26 ft | 2 kts | 188° |
| 2026-04-25 07:09 | 37.61313 | -122.38643 | 26 ft | 1 kts | 206° |
| 2026-04-25 07:09 | 37.61314 | -122.38642 | 26 ft | 0 kts | 206° |
| 2026-04-25 07:10 | 37.61308 | -122.38647 | 26 ft | 2 kts | 208° |
| 2026-04-25 07:10 | 37.61283 | -122.38663 | 25 ft | 5 kts | 206° |
| 2026-04-25 07:11 | 37.61242 | -122.38690 | 27 ft | 8 kts | 207° |
| 2026-04-25 07:11 | 37.61184 | -122.38728 | 27 ft | 11 kts | 207° |
| 2026-04-25 07:11 | 37.61110 | -122.38776 | 27 ft | 13 kts | 207° |
| 2026-04-25 07:11 | 37.61024 | -122.38834 | 27 ft | 15 kts | 208° |
| 2026-04-25 07:12 | 37.60936 | -122.38860 | 27 ft | 13 kts | 159° |
| 2026-04-25 07:12 | 37.60829 | -122.38631 | 27 ft | 17 kts | 118° |
| 2026-04-25 07:12 | 37.60767 | -122.38509 | 27 ft | 16 kts | 144° |
| 2026-04-25 07:13 | 37.60665 | -122.38458 | 27 ft | 17 kts | 135° |
| 2026-04-25 07:13 | 37.60581 | -122.38339 | 26 ft | 19 kts | 130° |
| 2026-04-25 07:13 | 37.60506 | -122.38195 | 27 ft | 21 kts | 105° |
| 2026-04-25 07:13 | 37.60521 | -122.38014 | 27 ft | 21 kts | 69° |
| 2026-04-25 07:14 | 37.60642 | -122.37905 | 27 ft | 22 kts | 27° |
| 2026-04-25 07:14 | 37.60776 | -122.37816 | 27 ft | 22 kts | 28° |
| 2026-04-25 07:14 | 37.60910 | -122.37727 | 27 ft | 22 kts | 28° |
| 2026-04-25 07:14 | 37.61043 | -122.37640 | 27 ft | 22 kts | 27° |
| 2026-04-25 07:15 | 37.61177 | -122.37551 | 27 ft | 22 kts | 27° |
| 2026-04-25 07:15 | 37.61320 | -122.37456 | 27 ft | 24 kts | 28° |
| 2026-04-25 07:15 | 37.61456 | -122.37365 | 27 ft | 13 kts | 28° |
| 2026-04-25 07:15 | 37.61511 | -122.37322 | 27 ft | 15 kts | 40° |
| 2026-04-25 07:16 | 37.61557 | -122.37155 | 27 ft | 17 kts | 98° |
| 2026-04-25 07:16 | 37.61527 | -122.37058 | 27 ft | 19 kts | 117° |
| 2026-04-25 07:16 | 37.61456 | -122.36910 | 27 ft | 21 kts | 131° |
| 2026-04-25 07:16 | 37.61360 | -122.36766 | 27 ft | 22 kts | 122° |
| 2026-04-25 07:17 | 37.61287 | -122.36596 | 27 ft | 22 kts | 121° |
| 2026-04-25 07:17 | 37.61215 | -122.36425 | 27 ft | 22 kts | 117° |
| 2026-04-25 07:17 | 37.61142 | -122.36249 | 27 ft | 23 kts | 118° |
| 2026-04-25 07:17 | 37.61073 | -122.36089 | 27 ft | 17 kts | 117° |
| 2026-04-25 07:18 | 37.61062 | -122.35943 | 27 ft | 15 kts | 59° |
| 2026-04-25 07:18 | 37.61136 | -122.35879 | 27 ft | 10 kts | 29° |
| 2026-04-25 07:18 | 37.61186 | -122.35875 | 27 ft | 7 kts | 331° |
| 2026-04-25 07:18 | 37.61204 | -122.35915 | 27 ft | 0 kts | 296° |
| 2026-04-25 07:19 | 37.61223 | -122.35962 | 27 ft | 24 kts | 296° |
| 2026-04-25 07:19 | 37.61452 | -122.36506 | 27 ft | 116 kts | 298° |
| 2026-04-25 07:19 | 37.61939 | -122.37695 | 68 ft | 182 kts | 297° |
| 2026-04-25 07:20 | 37.62582 | -122.39220 | 629 ft | 207 kts | 297° |
| 2026-04-25 07:20 | 37.63308 | -122.40907 | 1409 ft | 229 kts | 298° |
| 2026-04-25 07:20 | 37.64107 | -122.42691 | 2380 ft | 241 kts | 298° |
| 2026-04-25 07:20 | 37.64977 | -122.44625 | 3070 ft | 263 kts | 298° |
| 2026-04-25 07:21 | 37.65850 | -122.46677 | 3990 ft | 271 kts | 297° |
| 2026-04-25 07:21 | 37.66453 | -122.48898 | 5211 ft | 267 kts | 281° |
| 2026-04-25 07:21 | 37.66528 | -122.51198 | 6510 ft | 260 kts | 262° |
| 2026-04-25 07:21 | 37.65978 | -122.53346 | 7581 ft | 258 kts | 238° |
| 2026-04-25 07:22 | 37.64725 | -122.54947 | 8521 ft | 259 kts | 208° |
| 2026-04-25 07:22 | 37.63010 | -122.55569 | 9541 ft | 256 kts | 181° |
| 2026-04-25 07:22 | 37.61293 | -122.55375 | 10629 ft | 245 kts | 165° |
| 2026-04-25 07:22 | 37.59686 | -122.54618 | 11422 ft | 251 kts | 155° |
| 2026-04-25 07:23 | 37.58085 | -122.53604 | 12136 ft | 264 kts | 152° |
| 2026-04-25 07:23 | 37.56432 | -122.52501 | 13058 ft | 271 kts | 152° |
| 2026-04-25 07:23 | 37.54711 | -122.51382 | 13585 ft | 298 kts | 152° |
| 2026-04-25 07:23 | 37.52785 | -122.50090 | 14187 ft | 315 kts | 150° |
| 2026-04-25 07:24 | 37.50950 | -122.48698 | 15550 ft | 301 kts | 147° |
| 2026-04-25 07:24 | 37.49255 | -122.47219 | 16562 ft | 312 kts | 144° |
| 2026-04-25 07:24 | 37.47453 | -122.45358 | 16617 ft | 350 kts | 137° |
| 2026-04-25 07:24 | 37.45643 | -122.43093 | 16893 ft | 381 kts | 134° |
| 2026-04-25 07:25 | 37.43780 | -122.40580 | 17526 ft | 398 kts | 133° |
| 2026-04-25 07:25 | 37.41889 | -122.37967 | 18411 ft | 409 kts | 133° |
| 2026-04-25 07:25 | 37.39967 | -122.35304 | 19381 ft | 413 kts | 133° |
| 2026-04-25 07:25 | 37.38021 | -122.32618 | 20298 ft | 419 kts | 134° |
| 2026-04-25 07:26 | 37.36031 | -122.29888 | 21153 ft | 427 kts | 134° |
| 2026-04-25 07:26 | 37.34001 | -122.27119 | 21978 ft | 435 kts | 135° |
| 2026-04-25 07:26 | 37.31934 | -122.24311 | 22830 ft | 442 kts | 136° |
| 2026-04-25 07:26 | 37.29855 | -122.21494 | 23650 ft | 448 kts | 136° |
| 2026-04-25 07:27 | 37.27720 | -122.18608 | 24357 ft | 454 kts | 136° |
| 2026-04-25 07:27 | 37.25556 | -122.15685 | 25083 ft | 459 kts | 137° |
| 2026-04-25 07:27 | 37.23365 | -122.12729 | 25793 ft | 464 kts | 137° |
| 2026-04-25 07:27 | 37.21147 | -122.09739 | 26500 ft | 470 kts | 137° |
| 2026-04-25 07:28 | 37.18905 | -122.06718 | 27176 ft | 475 kts | 138° |
| 2026-04-25 07:28 | 37.16643 | -122.03674 | 27825 ft | 480 kts | 138° |
| 2026-04-25 07:28 | 37.14351 | -122.00592 | 28461 ft | 486 kts | 138° |
| 2026-04-25 07:28 | 37.12033 | -121.97479 | 29104 ft | 491 kts | 139° |
| 2026-04-25 07:29 | 37.09691 | -121.94336 | 29697 ft | 496 kts | 139° |
| 2026-04-25 07:29 | 37.07326 | -121.91165 | 30232 ft | 500 kts | 139° |
| 2026-04-25 07:29 | 37.04936 | -121.87962 | 30668 ft | 505 kts | 139° |
| 2026-04-25 07:29 | 37.02527 | -121.84736 | 31025 ft | 511 kts | 139° |
| 2026-04-25 07:30 | 37.00088 | -121.81473 | 31470 ft | 513 kts | 139° |
| 2026-04-25 07:30 | 36.97655 | -121.78219 | 32136 ft | 511 kts | 139° |
| 2026-04-25 07:30 | 36.95244 | -121.74997 | 32713 ft | 511 kts | 139° |
| 2026-04-25 07:30 | 36.92812 | -121.71752 | 33211 ft | 512 kts | 139° |
| 2026-04-25 07:31 | 36.90371 | -121.68501 | 33752 ft | 513 kts | 139° |
| 2026-04-25 07:31 | 36.87930 | -121.65254 | 34275 ft | 512 kts | 139° |
| 2026-04-25 07:31 | 36.85496 | -121.62016 | 34826 ft | 510 kts | 140° |
| 2026-04-25 07:31 | 36.83072 | -121.58795 | 35378 ft | 507 kts | 140° |
| 2026-04-25 07:32 | 36.80658 | -121.55593 | 35895 ft | 506 kts | 140° |
| 2026-04-25 07:32 | 36.78250 | -121.52401 | 36368 ft | 505 kts | 140° |
| 2026-04-25 07:32 | 36.75843 | -121.49214 | 36852 ft | 504 kts | 140° |
| 2026-04-25 07:32 | 36.73442 | -121.46040 | 37020 ft | 506 kts | 140° |
| 2026-04-25 07:33 | 36.68617 | -121.39671 | 37002 ft | 503 kts | 140° |
| 2026-04-25 07:33 | 36.63840 | -121.33372 | 36993 ft | 502 kts | 140° |
| 2026-04-25 07:34 | 36.59037 | -121.27055 | 37000 ft | 502 kts | 140° |
| 2026-04-25 07:34 | 36.54237 | -121.20754 | 37010 ft | 502 kts | 140° |
| 2026-04-25 07:35 | 36.49501 | -121.14545 | 37008 ft | 502 kts | 140° |
| 2026-04-25 07:35 | 36.44686 | -121.08244 | 37010 ft | 503 kts | 140° |
| 2026-04-25 07:36 | 36.39935 | -121.01832 | 37003 ft | 506 kts | 138° |
| 2026-04-25 07:36 | 36.35365 | -120.95175 | 37008 ft | 507 kts | 137° |
| 2026-04-25 07:37 | 36.30794 | -120.88495 | 36997 ft | 507 kts | 137° |
| 2026-04-25 07:37 | 36.26186 | -120.81861 | 36981 ft | 508 kts | 137° |
| 2026-04-25 07:38 | 36.21585 | -120.75286 | 36986 ft | 508 kts | 138° |
| 2026-04-25 07:38 | 36.16954 | -120.68682 | 36974 ft | 507 kts | 138° |
| 2026-04-25 07:39 | 36.12336 | -120.62106 | 36969 ft | 504 kts | 138° |
| 2026-04-25 07:39 | 36.07785 | -120.55633 | 36970 ft | 503 kts | 138° |
| 2026-04-25 07:40 | 36.03183 | -120.49107 | 36976 ft | 503 kts | 138° |
| 2026-04-25 07:40 | 35.98579 | -120.42588 | 36968 ft | 503 kts | 138° |
| 2026-04-25 07:41 | 35.93960 | -120.36059 | 36981 ft | 506 kts | 138° |
| 2026-04-25 07:41 | 35.89325 | -120.29581 | 36970 ft | 504 kts | 142° |
| 2026-04-25 07:42 | 35.84097 | -120.23982 | 36961 ft | 492 kts | 152° |
| 2026-04-25 07:42 | 35.78359 | -120.19558 | 36963 ft | 484 kts | 158° |
| 2026-04-25 07:43 | 35.72584 | -120.15288 | 36960 ft | 485 kts | 157° |
| 2026-04-25 07:43 | 35.66828 | -120.10952 | 36954 ft | 485 kts | 157° |
| 2026-04-25 07:44 | 35.61088 | -120.06616 | 36963 ft | 484 kts | 157° |
| 2026-04-25 07:44 | 35.55386 | -120.02316 | 36960 ft | 483 kts | 157° |
| 2026-04-25 07:45 | 35.49649 | -119.97998 | 36963 ft | 483 kts | 157° |
| 2026-04-25 07:45 | 35.43935 | -119.93700 | 36784 ft | 477 kts | 158° |
| 2026-04-25 07:46 | 35.41110 | -119.91578 | 36337 ft | 473 kts | 157° |
| 2026-04-25 07:46 | 35.38320 | -119.89482 | 35899 ft | 468 kts | 157° |
| 2026-04-25 07:46 | 35.35589 | -119.87437 | 35433 ft | 464 kts | 157° |
| 2026-04-25 07:46 | 35.32846 | -119.85384 | 34960 ft | 460 kts | 156° |
| 2026-04-25 07:47 | 35.30119 | -119.83345 | 34480 ft | 457 kts | 156° |
| 2026-04-25 07:47 | 35.27431 | -119.81256 | 34013 ft | 458 kts | 153° |
| 2026-04-25 07:47 | 35.24855 | -119.78949 | 33480 ft | 457 kts | 149° |
| 2026-04-25 07:47 | 35.22354 | -119.76551 | 32973 ft | 455 kts | 148° |
| 2026-04-25 07:48 | 35.19890 | -119.74150 | 32499 ft | 451 kts | 148° |
| 2026-04-25 07:48 | 35.17435 | -119.71779 | 32029 ft | 448 kts | 148° |
| 2026-04-25 07:48 | 35.14984 | -119.69446 | 31562 ft | 444 kts | 149° |
| 2026-04-25 07:48 | 35.12544 | -119.67151 | 31103 ft | 441 kts | 149° |
| 2026-04-25 07:49 | 35.10115 | -119.64884 | 30649 ft | 438 kts | 149° |
| 2026-04-25 07:49 | 35.07697 | -119.62636 | 30188 ft | 435 kts | 148° |
| 2026-04-25 07:49 | 35.05322 | -119.60431 | 29708 ft | 433 kts | 148° |
| 2026-04-25 07:49 | 35.04821 | -119.59966 | 29595 ft | 432 kts | 148° |
| 2026-04-25 07:50 | 35.02426 | -119.57742 | 29083 ft | 429 kts | 148° |
| 2026-04-25 07:50 | 35.00061 | -119.55545 | 28613 ft | 425 kts | 148° |
| 2026-04-25 07:50 | 34.97717 | -119.53370 | 28156 ft | 422 kts | 148° |
| 2026-04-25 07:50 | 34.95388 | -119.51210 | 27704 ft | 419 kts | 148° |
| 2026-04-25 07:51 | 34.93076 | -119.49068 | 27225 ft | 416 kts | 148° |
| 2026-04-25 07:51 | 34.90780 | -119.46948 | 26787 ft | 413 kts | 149° |
| 2026-04-25 07:51 | 34.88479 | -119.44872 | 26336 ft | 410 kts | 149° |
| 2026-04-25 07:51 | 34.86186 | -119.42828 | 25890 ft | 407 kts | 150° |
| 2026-04-25 07:52 | 34.83937 | -119.40826 | 25455 ft | 405 kts | 150° |
| 2026-04-25 07:52 | 34.81668 | -119.38804 | 25025 ft | 402 kts | 150° |
| 2026-04-25 07:52 | 34.79405 | -119.36782 | 24597 ft | 401 kts | 150° |
| 2026-04-25 07:52 | 34.77163 | -119.34780 | 24147 ft | 399 kts | 150° |
| 2026-04-25 07:53 | 34.74928 | -119.32787 | 23700 ft | 398 kts | 150° |
| 2026-04-25 07:53 | 34.72694 | -119.30819 | 23221 ft | 396 kts | 150° |
| 2026-04-25 07:53 | 34.70457 | -119.28869 | 22741 ft | 394 kts | 150° |
| 2026-04-25 07:53 | 34.68237 | -119.26934 | 22285 ft | 391 kts | 150° |
| 2026-04-25 07:54 | 34.68153 | -119.26860 | 22273 ft | 391 kts | 150° |
| 2026-04-25 07:54 | 34.65930 | -119.24920 | 21834 ft | 387 kts | 150° |
| 2026-04-25 07:54 | 34.63748 | -119.23021 | 21407 ft | 384 kts | 150° |
| 2026-04-25 07:54 | 34.61572 | -119.21147 | 20957 ft | 382 kts | 150° |
| 2026-04-25 07:55 | 34.59409 | -119.19285 | 20553 ft | 379 kts | 150° |
| 2026-04-25 07:55 | 34.57262 | -119.17437 | 20120 ft | 377 kts | 150° |
| 2026-04-25 07:55 | 34.55132 | -119.15590 | 19703 ft | 376 kts | 150° |
| 2026-04-25 07:55 | 34.53027 | -119.13726 | 19280 ft | 374 kts | 149° |
| 2026-04-25 07:56 | 34.50932 | -119.11862 | 18868 ft | 374 kts | 149° |
| 2026-04-25 07:56 | 34.48834 | -119.09998 | 18441 ft | 373 kts | 149° |
| 2026-04-25 07:56 | 34.46741 | -119.08145 | 17954 ft | 373 kts | 149° |
| 2026-04-25 07:56 | 34.44651 | -119.06296 | 17499 ft | 371 kts | 149° |
| 2026-04-25 07:57 | 34.42562 | -119.04467 | 17062 ft | 369 kts | 150° |
| 2026-04-25 07:57 | 34.40480 | -119.02666 | 16622 ft | 367 kts | 150° |
| 2026-04-25 07:57 | 34.38407 | -119.00876 | 16198 ft | 364 kts | 150° |
| 2026-04-25 07:57 | 34.36352 | -118.99100 | 15763 ft | 362 kts | 150° |
| 2026-04-25 07:58 | 34.34310 | -118.97333 | 15377 ft | 360 kts | 149° |
| 2026-04-25 07:58 | 34.32301 | -118.95540 | 14953 ft | 359 kts | 148° |
| 2026-04-25 07:58 | 34.30327 | -118.93736 | 14538 ft | 357 kts | 148° |
| 2026-04-25 07:58 | 34.28349 | -118.91930 | 14133 ft | 355 kts | 148° |
| 2026-04-25 07:59 | 34.26377 | -118.90137 | 13706 ft | 354 kts | 148° |
| 2026-04-25 07:59 | 34.25211 | -118.89078 | 13424 ft | 354 kts | 148° |
| 2026-04-25 07:59 | 34.23910 | -118.87888 | 13118 ft | 352 kts | 147° |
| 2026-04-25 08:00 | 34.22620 | -118.86702 | 12839 ft | 351 kts | 147° |
| 2026-04-25 08:00 | 34.20033 | -118.84320 | 12323 ft | 346 kts | 147° |
| 2026-04-25 08:00 | 34.18780 | -118.83167 | 12233 ft | 339 kts | 147° |
| 2026-04-25 08:00 | 34.16337 | -118.80915 | 11995 ft | 327 kts | 146° |
| 2026-04-25 08:01 | 34.15156 | -118.79726 | 11736 ft | 328 kts | 143° |
| 2026-04-25 08:01 | 34.13463 | -118.77874 | 11382 ft | 326 kts | 141° |
| 2026-04-25 08:01 | 34.11825 | -118.76044 | 11020 ft | 324 kts | 141° |
| 2026-04-25 08:01 | 34.10167 | -118.74207 | 10667 ft | 322 kts | 141° |
| 2026-04-25 08:02 | 34.08515 | -118.72396 | 10336 ft | 320 kts | 141° |
| 2026-04-25 08:02 | 34.06881 | -118.70616 | 10137 ft | 305 kts | 141° |
| 2026-04-25 08:02 | 34.05357 | -118.68958 | 9915 ft | 290 kts | 141° |
| 2026-04-25 08:02 | 34.03875 | -118.67312 | 9542 ft | 287 kts | 134° |
| 2026-04-25 08:03 | 34.02888 | -118.65241 | 9235 ft | 288 kts | 107° |
| 2026-04-25 08:03 | 34.02589 | -118.62872 | 8951 ft | 287 kts | 96° |
| 2026-04-25 08:03 | 34.02387 | -118.60460 | 8645 ft | 291 kts | 97° |
| 2026-04-25 08:03 | 34.02168 | -118.58024 | 8328 ft | 293 kts | 97° |
| 2026-04-25 08:04 | 34.01945 | -118.55621 | 8013 ft | 291 kts | 97° |
| 2026-04-25 08:04 | 34.01723 | -118.53222 | 7762 ft | 286 kts | 97° |
| 2026-04-25 08:04 | 34.01503 | -118.50858 | 7517 ft | 281 kts | 97° |
| 2026-04-25 08:04 | 34.01284 | -118.48535 | 7284 ft | 277 kts | 97° |
| 2026-04-25 08:05 | 34.01072 | -118.46248 | 7051 ft | 270 kts | 95° |
| 2026-04-25 08:05 | 34.01194 | -118.44054 | 6905 ft | 257 kts | 78° |
| 2026-04-25 08:05 | 34.01581 | -118.41952 | 6635 ft | 255 kts | 76° |
| 2026-04-25 08:05 | 34.01968 | -118.39920 | 6479 ft | 244 kts | 76° |
| 2026-04-25 08:06 | 34.02330 | -118.37933 | 6264 ft | 242 kts | 77° |
| 2026-04-25 08:06 | 34.02681 | -118.35962 | 6076 ft | 238 kts | 77° |
| 2026-04-25 08:06 | 34.02943 | -118.33990 | 6014 ft | 239 kts | 82° |
| 2026-04-25 08:06 | 34.03138 | -118.31997 | 6009 ft | 239 kts | 83° |
| 2026-04-25 08:07 | 34.03332 | -118.29999 | 6009 ft | 240 kts | 83° |
| 2026-04-25 08:07 | 34.03549 | -118.27981 | 5734 ft | 244 kts | 82° |
| 2026-04-25 08:07 | 34.03770 | -118.25990 | 5463 ft | 240 kts | 82° |
| 2026-04-25 08:07 | 34.03987 | -118.24012 | 5220 ft | 234 kts | 82° |
| 2026-04-25 08:08 | 34.04192 | -118.22080 | 5010 ft | 230 kts | 84° |
| 2026-04-25 08:08 | 34.03921 | -118.20207 | 4749 ft | 231 kts | 121° |
| 2026-04-25 08:08 | 34.02734 | -118.18972 | 4558 ft | 226 kts | 155° |
| 2026-04-25 08:08 | 34.01295 | -118.18206 | 4334 ft | 227 kts | 157° |
| 2026-04-25 08:09 | 33.99848 | -118.17413 | 4109 ft | 229 kts | 156° |
| 2026-04-25 08:09 | 33.98339 | -118.16914 | 3854 ft | 226 kts | 180° |
| 2026-04-25 08:09 | 33.96875 | -118.17467 | 3595 ft | 226 kts | 214° |
| 2026-04-25 08:09 | 33.95923 | -118.18920 | 3278 ft | 221 kts | 249° |
| 2026-04-25 08:10 | 33.95700 | -118.20706 | 3014 ft | 212 kts | 265° |
| 2026-04-25 08:10 | 33.95569 | -118.22447 | 2736 ft | 206 kts | 263° |
| 2026-04-25 08:10 | 33.95399 | -118.24140 | 2451 ft | 200 kts | 262° |
| 2026-04-25 08:10 | 33.95235 | -118.25740 | 2199 ft | 185 kts | 262° |
| 2026-04-25 08:11 | 33.95085 | -118.27213 | 1957 ft | 169 kts | 262° |
| 2026-04-25 08:11 | 33.94951 | -118.28529 | 1754 ft | 147 kts | 262° |
| 2026-04-25 08:11 | 33.94829 | -118.29724 | 1560 ft | 144 kts | 262° |
| 2026-04-25 08:11 | 33.94707 | -118.30921 | 1372 ft | 144 kts | 262° |
| 2026-04-25 08:12 | 33.94585 | -118.32112 | 1171 ft | 142 kts | 262° |
| 2026-04-25 08:12 | 33.94465 | -118.33287 | 974 ft | 140 kts | 262° |
| 2026-04-25 08:12 | 33.94345 | -118.34450 | 768 ft | 139 kts | 262° |
| 2026-04-25 08:12 | 33.94225 | -118.35601 | 558 ft | 138 kts | 262° |
| 2026-04-25 08:13 | 33.94108 | -118.36739 | 368 ft | 136 kts | 262° |
| 2026-04-25 08:13 | 33.93997 | -118.37859 | 202 ft | 138 kts | 260° |
| 2026-04-25 08:13 | 33.93885 | -118.38979 | 127 ft | 126 kts | 263° |
| 2026-04-25 08:14 | 33.93840 | -118.39933 | 127 ft | 0 kts | 295° |
| 2026-04-25 08:14 | 33.93841 | -118.39936 | 127 ft | 1 kts | 295° |
| 2026-04-25 08:14 | 33.93847 | -118.39950 | 125 ft | 3 kts | 301° |
| 2026-04-25 08:15 | 33.93863 | -118.39976 | 126 ft | 5 kts | 307° |
| 2026-04-25 08:15 | 33.93887 | -118.40012 | 125 ft | 6 kts | 310° |
| 2026-04-25 08:15 | 33.93889 | -118.40015 | 125 ft | 1 kts | 312° |
| 2026-04-25 08:15 | 33.93899 | -118.40028 | 130 ft | 3 kts | 312° |
| 2026-04-25 08:16 | 33.93921 | -118.40045 | 126 ft | 5 kts | 336° |
| 2026-04-25 08:16 | 33.93959 | -118.40063 | 127 ft | 7 kts | 327° |
| 2026-04-25 08:16 | 33.93995 | -118.40111 | 127 ft | 7 kts | 309° |
| 2026-04-25 08:16 | 33.94005 | -118.40125 | 126 ft | 0 kts | 308° |